Time;durP1;ratioP1;P1;durP2;ratioP2;P2;SDS_P1;SDS_P2;PMS_P1;PMS_P2;Temp;Humidity;BMP_temperature;BMP_pressure;BME280_temperature;BME280_humidity;BME280_pressure;Samples;Min_cycle;Max_cycle;Signal;HPM_P1;HPM_P2
2023/06/29 00:01:31;;;;;;;8.80;7.13;;;;;;;-143.21;95.97;72328.00;5132042;27;20199;-79
2023/06/29 00:03:59;;;;;;;10.00;7.70;;;;;;;-143.21;96.09;72331.97;5131701;27;20187;-79
2023/06/29 00:06:27;;;;;;;9.90;7.57;;;;;;;-143.21;95.23;72324.03;5131645;27;20203;-79
2023/06/29 00:08:54;;;;;;;9.33;7.17;;;;;;;-143.21;95.09;72324.03;5131789;27;20215;-78
2023/06/29 00:11:22;;;;;;;8.90;7.10;;;;;;;-143.21;94.52;72322.06;5131694;27;20191;-79
2023/06/29 00:13:48;;;;;;;9.77;7.70;;;;;;;-143.21;94.51;72316.09;5131816;27;20224;-79
2023/06/29 00:16:16;;;;;;;9.20;7.10;;;;;;;-143.21;94.59;72302.22;5131758;27;20590;-78
2023/06/29 00:18:44;;;;;;;8.63;7.20;;;;;;;-143.21;94.35;72302.22;5131730;27;20183;-78
2023/06/29 00:21:11;;;;;;;9.20;7.37;;;;;;;-143.21;93.43;72300.25;5131126;27;20303;-78
2023/06/29 00:23:40;;;;;;;8.37;6.77;;;;;;;-143.21;93.52;72304.19;5131818;27;20681;-77
2023/06/29 00:26:07;;;;;;;9.13;7.47;;;;;;;-143.21;93.75;72312.13;5131738;27;20192;-77
2023/06/29 00:28:34;;;;;;;9.80;7.00;;;;;;;-143.21;94.85;72320.06;5131751;28;20224;-77
2023/06/29 00:31:01;;;;;;;10.33;7.10;;;;;;;-143.21;95.66;72328.00;5131594;28;20596;-77
2023/06/29 00:33:28;;;;;;;9.07;7.30;;;;;;;-143.21;96.48;72331.97;5131864;28;20575;-78
2023/06/29 00:35:54;;;;;;;9.27;7.37;;;;;;;-143.21;96.93;72316.09;5131043;28;20226;-78
2023/06/29 00:38:21;;;;;;;9.73;7.03;;;;;;;-143.21;96.85;72304.19;5131409;28;20198;-78
2023/06/29 00:40:49;;;;;;;12.50;7.07;;;;;;;-143.21;96.34;72296.28;5131553;28;20187;-79
2023/06/29 00:43:17;;;;;;;9.20;7.23;;;;;;;-143.21;96.32;72310.16;5131362;28;20616;-79
2023/06/29 00:45:44;;;;;;;9.33;7.10;;;;;;;-143.21;96.28;72331.97;5131535;28;20230;-79
2023/06/29 00:48:11;;;;;;;11.33;7.60;;;;;;;-143.21;97.01;72345.84;5130972;28;20215;-79
2023/06/29 00:50:39;;;;;;;9.53;7.10;;;;;;;-143.21;97.40;72349.81;5131183;28;20267;-79
2023/06/29 00:53:06;;;;;;;9.17;7.03;;;;;;;-143.21;97.45;72353.78;5113470;28;20195;-79
2023/06/29 00:55:33;;;;;;;10.07;7.00;;;;;;;-143.21;96.33;72341.88;5131249;28;20191;-79
2023/06/29 00:58:01;;;;;;;10.53;6.97;;;;;;;-143.21;96.00;72339.91;5131190;28;20240;-78
2023/06/29 01:00:28;;;;;;;9.47;7.30;;;;;;;-143.21;95.74;72337.91;5131287;28;20612;-79
2023/06/29 01:02:54;;;;;;;14.30;7.70;;;;;;;-143.21;96.17;72341.88;5131064;28;20240;-79
2023/06/29 01:05:21;;;;;;;11.17;7.70;;;;;;;-143.21;95.91;72345.84;5131275;28;20817;-79
2023/06/29 01:07:52;;;;;;;9.73;7.07;;;;;;;-143.21;95.52;72343.88;5131421;28;20203;-79
2023/06/29 01:10:24;;;;;;;10.20;7.80;;;;;;;-143.21;95.68;72341.88;5131098;28;20300;-79
2023/06/29 01:12:52;;;;;;;11.67;7.83;;;;;;;-143.21;95.70;72337.91;5130983;28;20184;-79
2023/06/29 01:15:22;;;;;;;10.10;8.07;;;;;;;-143.21;95.37;72335.94;5130807;28;20918;-79
2023/06/29 01:17:52;;;;;;;10.67;7.77;;;;;;;-143.21;95.61;72331.97;5130879;28;20666;-79
2023/06/29 01:20:20;;;;;;;10.40;7.70;;;;;;;-143.21;95.37;72322.06;5130852;28;20231;-79
2023/06/29 01:22:56;;;;;;;9.50;7.47;;;;;;;-143.21;95.17;72335.94;5131010;28;20577;-78
2023/06/29 01:25:25;;;;;;;10.07;7.87;;;;;;;-143.21;95.44;72343.88;5133811;27;20194;-79
2023/06/29 01:27:52;;;;;;;9.67;7.70;;;;;;;-143.21;95.80;72361.72;5134903;27;20198;-79
2023/06/29 01:30:23;;;;;;;10.90;8.23;;;;;;;-143.21;96.23;72359.72;5134995;27;20314;-79
2023/06/29 01:32:50;;;;;;;9.87;7.43;;;;;;;-143.21;95.95;72349.81;5134958;27;20188;-79
2023/06/29 01:35:17;;;;;;;9.83;7.73;;;;;;;-143.21;95.23;72347.84;5134813;27;20718;-79
2023/06/29 01:37:48;;;;;;;11.60;8.50;;;;;;;-143.21;95.03;72345.84;5135037;27;20191;-78
2023/06/29 01:40:18;;;;;;;11.87;8.07;;;;;;;-143.21;95.35;72349.81;5135262;27;20188;-78
2023/06/29 01:42:49;;;;;;;11.60;8.53;;;;;;;-143.21;94.78;72365.69;5135056;27;20232;-78
2023/06/29 01:45:18;;;;;;;11.97;8.60;;;;;;;-143.21;94.73;72367.66;5134801;27;20195;-78
2023/06/29 01:47:45;;;;;;;14.60;8.70;;;;;;;-143.21;94.63;72367.66;5134780;27;20194;-78
2023/06/29 01:50:12;;;;;;;10.33;8.07;;;;;;;-143.21;94.19;72365.69;5134293;27;20211;-79
2023/06/29 01:52:39;;;;;;;12.57;8.40;;;;;;;-143.21;94.44;72371.63;5134523;27;20188;-78
2023/06/29 01:55:07;;;;;;;12.67;9.17;;;;;;;-143.21;94.75;72389.47;5134189;27;20576;-79
2023/06/29 01:57:34;;;;;;;13.43;8.83;;;;;;;-143.21;95.72;72401.38;5134473;27;20227;-78
2023/06/29 02:00:03;;;;;;;15.33;9.30;;;;;;;-143.21;95.26;72399.41;5134691;27;20187;-79
2023/06/29 02:02:30;;;;;;;13.13;9.10;;;;;;;-143.21;95.31;72407.31;5134309;27;20215;-79
2023/06/29 02:04:57;;;;;;;10.63;8.83;;;;;;;-143.21;95.11;72403.34;5134389;27;20260;-78
2023/06/29 02:07:24;;;;;;;13.07;9.80;;;;;;;-143.21;95.17;72403.34;5134092;27;20740;-79
2023/06/29 02:09:51;;;;;;;12.07;9.43;;;;;;;-143.21;94.99;72397.41;5134126;27;20215;-79
2023/06/29 02:12:18;;;;;;;16.13;9.37;;;;;;;-143.21;94.48;72395.44;5134432;27;20196;-79
2023/06/29 02:14:48;;;;;;;13.70;9.47;;;;;;;-143.21;94.25;72387.50;5134258;27;20192;-79
2023/06/29 02:17:17;;;;;;;16.97;9.90;;;;;;;-143.21;93.75;72379.56;5133690;27;20649;-78
2023/06/29 02:19:44;;;;;;;14.00;10.27;;;;;;;-143.21;92.98;72377.56;5134005;27;20244;-79
2023/06/29 02:22:11;;;;;;;11.40;8.90;;;;;;;-143.21;93.03;72371.63;5133517;27;20283;-78
2023/06/29 02:24:38;;;;;;;14.73;9.77;;;;;;;-143.21;92.54;72357.75;5134074;27;20567;-78
2023/06/29 02:27:05;;;;;;;11.27;9.13;;;;;;;-143.21;91.69;72353.78;5133925;27;20456;-78
2023/06/29 02:29:31;;;;;;;12.70;9.03;;;;;;;-143.21;91.58;72353.78;5134019;27;20717;-78
2023/06/29 02:31:58;;;;;;;13.50;9.40;;;;;;;-143.21;91.67;72357.75;5133216;27;20218;-80
2023/06/29 02:34:26;;;;;;;10.10;8.40;;;;;;;-143.21;91.25;72359.72;5133214;27;20207;-79
2023/06/29 02:36:53;;;;;;;12.70;8.90;;;;;;;-143.21;90.94;72355.75;5133015;27;20627;-78
2023/06/29 02:39:20;;;;;;;13.07;9.20;;;;;;;-143.21;90.85;72363.69;5133493;27;20244;-79
2023/06/29 02:41:46;;;;;;;12.07;8.40;;;;;;;-143.21;91.11;72361.72;5133250;27;20256;-79
2023/06/29 02:44:13;;;;;;;12.30;9.43;;;;;;;-143.21;90.51;72357.75;5133314;27;20191;-79
2023/06/29 02:46:42;;;;;;;11.47;8.73;;;;;;;-143.21;90.00;72355.75;5133068;27;20198;-79
2023/06/29 02:49:08;;;;;;;11.50;9.00;;;;;;;-143.21;89.80;72369.66;5133305;27;20222;-79
2023/06/29 02:51:37;;;;;;;12.30;8.57;;;;;;;-143.21;89.47;72367.66;5133258;27;20195;-79
2023/06/29 02:54:04;;;;;;;16.57;9.10;;;;;;;-143.21;89.65;72369.66;5133683;27;20232;-79
2023/06/29 02:56:30;;;;;;;10.47;8.53;;;;;;;-143.21;89.71;72377.56;5133101;27;20183;-79
2023/06/29 02:58:57;;;;;;;11.73;9.57;;;;;;;-143.21;89.32;72379.56;5133225;27;20191;-79
2023/06/29 03:01:24;;;;;;;13.00;9.03;;;;;;;-143.21;89.79;72391.47;5132822;27;20244;-79
2023/06/29 03:03:51;;;;;;;12.20;8.90;;;;;;;-143.21;89.71;72395.44;5132601;27;20199;-79
2023/06/29 03:06:17;;;;;;;11.23;8.70;;;;;;;-143.21;89.46;72387.50;5132888;27;20207;-79
2023/06/29 03:08:45;;;;;;;11.20;8.37;;;;;;;-143.21;89.16;72389.47;5132571;27;20230;-79
2023/06/29 03:11:12;;;;;;;12.03;9.00;;;;;;;-143.21;88.74;72391.47;5132683;27;20199;-79
2023/06/29 03:13:39;;;;;;;12.50;9.03;;;;;;;-143.21;89.21;72397.41;5132634;27;20196;-79
2023/06/29 03:16:06;;;;;;;11.60;9.13;;;;;;;-143.21;89.34;72399.41;5132604;27;20195;-79
2023/06/29 03:18:33;;;;;;;12.13;8.87;;;;;;;-143.21;89.18;72405.34;5132530;27;20206;-80
2023/06/29 03:21:01;;;;;;;13.00;8.87;;;;;;;-143.21;89.19;72407.31;5132366;27;20690;-78
2023/06/29 03:23:28;;;;;;;15.00;9.03;;;;;;;-143.21;89.41;72411.28;5132774;27;20630;-79
2023/06/29 03:25:56;;;;;;;11.97;9.83;;;;;;;-143.21;90.08;72421.22;5132312;27;20195;-79
2023/06/29 03:28:23;;;;;;;12.47;9.80;;;;;;;-143.21;90.21;72421.22;5132338;27;20195;-79
2023/06/29 03:30:50;;;;;;;13.20;10.27;;;;;;;-143.21;90.54;72429.16;5132256;27;20194;-79
2023/06/29 03:33:16;;;;;;;15.10;10.73;;;;;;;-143.21;91.12;72425.19;5132285;27;20187;-79
2023/06/29 03:35:43;;;;;;;15.00;10.77;;;;;;;-143.21;91.17;72431.13;5132430;27;20252;-78
2023/06/29 03:38:10;;;;;;;15.00;11.27;;;;;;;-143.21;91.10;72429.16;5132477;27;20195;-78
2023/06/29 03:40:37;;;;;;;16.03;10.77;;;;;;;-143.21;90.97;72437.06;5132118;27;20661;-78
2023/06/29 03:43:05;;;;;;;16.67;11.53;;;;;;;-143.21;91.47;72441.03;5132480;27;20194;-78
2023/06/29 03:45:32;;;;;;;17.83;12.43;;;;;;;-143.21;91.92;72439.06;5132308;27;20365;-79
2023/06/29 03:47:59;;;;;;;17.17;11.83;;;;;;;-143.21;91.81;72437.06;5130911;27;20191;-78
2023/06/29 03:50:26;;;;;;;17.53;11.07;;;;;;;-143.21;91.81;72447.00;5131928;27;20309;-79
2023/06/29 03:52:52;;;;;;;15.80;11.27;;;;;;;-143.21;92.80;72452.94;5132275;27;20214;-79
2023/06/29 03:55:19;;;;;;;14.33;11.20;;;;;;;-143.21;93.32;72460.88;5131925;27;20191;-79
2023/06/29 03:57:46;;;;;;;19.23;12.50;;;;;;;-143.21;93.87;72474.75;5131904;27;20202;-78
2023/06/29 04:00:15;;;;;;;18.17;12.03;;;;;;;-143.21;94.50;72482.69;5132430;27;20640;-78
2023/06/29 04:02:44;;;;;;;16.43;12.23;;;;;;;-143.21;94.56;72490.63;5132016;27;20610;-79
2023/06/29 04:05:11;;;;;;;16.00;11.67;;;;;;;-143.21;94.85;72486.66;5131744;27;20230;-79
2023/06/29 04:07:38;;;;;;;16.17;12.10;;;;;;;-143.21;95.02;72488.63;5131453;27;20660;-79
2023/06/29 04:10:05;;;;;;;17.70;12.63;;;;;;;-143.21;95.32;72490.63;5131796;27;20696;-79
2023/06/29 04:12:32;;;;;;;18.00;12.50;;;;;;;-143.21;95.28;72488.63;5131821;27;20693;-79
2023/06/29 04:14:59;;;;;;;17.57;12.13;;;;;;;-143.21;95.31;72476.75;5131872;27;20191;-80
2023/06/29 04:17:27;;;;;;;17.83;13.03;;;;;;;-143.21;95.07;72478.72;5131390;27;20195;-78
2023/06/29 04:19:54;;;;;;;16.63;12.97;;;;;;;-143.21;94.17;72480.72;5131296;27;20252;-78
2023/06/29 04:22:21;;;;;;;21.67;13.93;;;;;;;-143.21;94.31;72478.72;5131246;27;20264;-79
2023/06/29 04:24:47;;;;;;;20.70;13.07;;;;;;;-143.21;94.54;72478.72;5131822;27;20196;-78
2023/06/29 04:27:14;;;;;;;23.43;13.83;;;;;;;-143.21;93.60;72458.88;5131240;27;20256;-79
2023/06/29 04:29:42;;;;;;;19.30;13.40;;;;;;;-143.21;93.15;72458.88;5131510;28;20215;-79
2023/06/29 04:32:09;;;;;;;17.87;13.23;;;;;;;-143.21;93.36;72456.91;5131503;28;20198;-79
2023/06/29 04:34:37;;;;;;;19.27;13.57;;;;;;;-143.21;93.82;72460.88;5131605;28;20195;-79
2023/06/29 04:37:05;;;;;;;19.37;13.23;;;;;;;-143.21;93.32;72450.97;5131540;28;20207;-79
2023/06/29 04:39:32;;;;;;;19.33;13.90;;;;;;;-143.21;93.23;72450.97;5131380;28;20190;-78
2023/06/29 04:42:02;;;;;;;17.83;13.37;;;;;;;-143.21;93.46;72443.03;5131590;28;20202;-80
2023/06/29 04:44:31;;;;;;;19.97;13.60;;;;;;;-143.21;92.57;72445.00;5131452;28;20195;-79
2023/06/29 04:47:00;;;;;;;17.77;13.10;;;;;;;-143.21;92.42;72447.00;5131499;28;20251;-78
2023/06/29 04:49:31;;;;;;;18.07;13.77;;;;;;;-143.21;92.39;72445.00;5131294;28;20716;-79
2023/06/29 04:52:00;;;;;;;18.63;13.43;;;;;;;-143.21;91.76;72439.06;5131403;28;20195;-78
2023/06/29 04:54:27;;;;;;;18.77;13.90;;;;;;;-143.21;91.56;72427.16;5131110;28;20199;-79
2023/06/29 04:56:54;;;;;;;18.27;13.90;;;;;;;-143.21;91.73;72427.16;5131562;28;20227;-79
2023/06/29 04:59:24;;;;;;;19.23;14.17;;;;;;;-143.21;91.46;72425.19;5134988;27;20577;-79
2023/06/29 05:01:51;;;;;;;18.43;13.23;;;;;;;-143.21;91.04;72411.28;5135426;27;20282;-79
2023/06/29 05:04:21;;;;;;;20.67;13.60;;;;;;;-143.21;91.20;72421.22;5135718;27;20188;-81
2023/06/29 05:06:48;;;;;;;19.40;13.90;;;;;;;-143.21;91.99;72413.28;5135319;27;20203;-80
2023/06/29 05:09:16;;;;;;;17.57;13.67;;;;;;;-143.21;91.14;72407.31;5136090;27;20219;-78
2023/06/29 05:11:43;;;;;;;20.57;14.13;;;;;;;-143.21;90.16;72395.44;5135724;27;20283;-81
2023/06/29 05:14:10;;;;;;;21.10;13.90;;;;;;;-143.21;89.94;72395.44;5136203;27;20195;-80
2023/06/29 05:16:37;;;;;;;18.50;13.50;;;;;;;-143.21;89.53;72381.53;5135329;27;20195;-78
2023/06/29 05:19:04;;;;;;;15.93;13.17;;;;;;;-143.21;89.00;72379.56;5135365;27;20223;-79
2023/06/29 05:21:31;;;;;;;21.70;13.93;;;;;;;-143.21;89.14;72375.59;5135001;27;20672;-79
2023/06/29 05:23:58;;;;;;;21.30;14.87;;;;;;;-143.21;89.15;72371.63;5135149;27;20734;-78
2023/06/29 05:26:26;;;;;;;19.20;13.87;;;;;;;-143.21;89.53;72367.66;5135297;27;20191;-79
2023/06/29 05:28:53;;;;;;;19.37;14.10;;;;;;;-143.21;89.39;72371.63;5135252;27;20622;-79
2023/06/29 05:31:20;;;;;;;20.33;13.50;;;;;;;-143.21;88.67;72355.75;5134903;27;20226;-79
2023/06/29 05:33:46;;;;;;;17.10;12.63;;;;;;;-143.21;88.01;72355.75;5134859;27;20203;-79
2023/06/29 05:36:13;;;;;;;17.03;12.23;;;;;;;-143.21;87.94;72345.84;5135178;27;20206;-79
2023/06/29 05:38:40;;;;;;;17.37;12.83;;;;;;;-143.21;87.17;72343.88;5134804;27;20723;-79
2023/06/29 05:41:07;;;;;;;16.50;12.80;;;;;;;-143.21;87.42;72341.88;5134857;27;20195;-78
2023/06/29 05:43:35;;;;;;;19.40;13.70;;;;;;;-143.21;88.52;72326.00;5134856;27;20187;-79
2023/06/29 05:46:02;;;;;;;17.23;12.87;;;;;;;-143.21;87.43;72306.19;5134530;27;20630;-79
2023/06/29 05:48:29;;;;;;;19.37;13.13;;;;;;;-143.21;86.24;72294.28;5134146;27;20287;-79
2023/06/29 05:50:56;;;;;;;19.90;12.90;;;;;;;-143.21;84.69;72282.38;5134685;27;20291;-79
2023/06/29 05:53:23;;;;;;;19.40;12.43;;;;;;;-143.21;84.33;72288.34;5134571;27;20199;-79
2023/06/29 05:55:49;;;;;;;14.40;10.93;;;;;;;-143.21;81.60;72294.28;5134301;27;20191;-79
2023/06/29 05:58:16;;;;;;;16.03;11.60;;;;;;;-143.21;82.68;72322.06;5134403;27;20259;-78
2023/06/29 06:00:44;;;;;;;16.83;11.37;;;;;;;-143.21;83.60;72326.00;5134276;27;20563;-79
2023/06/29 06:03:11;;;;;;;16.67;12.27;;;;;;;-143.21;84.11;72316.09;5134001;27;20709;-79
2023/06/29 06:05:38;;;;;;;13.93;11.27;;;;;;;-143.21;83.83;72318.09;5134231;27;20199;-78
2023/06/29 06:08:05;;;;;;;16.30;10.90;;;;;;;-143.21;82.75;72339.91;5133860;27;20658;-79
2023/06/29 06:10:32;;;;;;;14.27;11.20;;;;;;;-143.21;83.38;72335.94;5133283;27;20215;-80
2023/06/29 06:12:59;;;;;;;19.03;12.47;;;;;;;-143.21;83.68;72337.91;5134200;27;20191;-78
2023/06/29 06:15:26;;;;;;;16.50;11.73;;;;;;;-143.21;83.65;72322.06;5133935;27;20183;-80
2023/06/29 06:17:54;;;;;;;16.80;11.83;;;;;;;-143.21;83.58;72312.13;5133424;27;20252;-79
2023/06/29 06:20:21;;;;;;;14.33;11.63;;;;;;;-143.21;83.00;72290.31;5133639;27;20234;-79
2023/06/29 06:22:48;;;;;;;18.20;11.67;;;;;;;-143.21;83.28;72274.47;5133639;27;20201;-78
2023/06/29 06:25:17;;;;;;;16.87;11.27;;;;;;;-143.21;82.75;72266.53;5133530;27;20666;-79
2023/06/29 06:27:44;;;;;;;17.90;11.20;;;;;;;-143.21;83.25;72252.63;5133950;27;20251;-78
2023/06/29 06:30:11;;;;;;;15.47;11.80;;;;;;;-143.21;82.27;72240.75;5133532;27;20215;-79
2023/06/29 06:32:39;;;;;;;15.20;10.80;;;;;;;-143.21;81.94;72224.88;5133421;27;20199;-79
2023/06/29 06:35:09;;;;;;;15.20;10.20;;;;;;;-143.21;80.96;72209.00;5133938;27;20291;-79
2023/06/29 06:37:36;;;;;;;28.53;12.70;;;;;;;-143.21;80.55;72195.13;5133474;27;20640;-79
2023/06/29 06:40:07;;;;;;;16.33;12.00;;;;;;;-143.21;80.51;72195.13;5133411;27;20634;-78
2023/06/29 06:42:34;;;;;;;16.93;11.03;;;;;;;-143.21;80.03;72189.19;5133940;27;20184;-78
2023/06/29 06:45:03;;;;;;;15.13;10.90;;;;;;;-143.21;79.16;72195.13;5133555;27;20745;-79
2023/06/29 06:47:31;;;;;;;13.57;9.80;;;;;;;-143.21;79.56;72199.09;5133494;27;20202;-79
2023/06/29 06:49:58;;;;;;;14.53;11.30;;;;;;;-143.21;80.95;72212.97;5133375;27;20302;-79
2023/06/29 06:52:26;;;;;;;14.40;11.10;;;;;;;-143.21;81.21;72216.94;5133150;27;20715;-79
2023/06/29 06:54:53;;;;;;;15.87;11.20;;;;;;;-143.21;81.10;72199.09;5133172;27;20195;-80
2023/06/29 06:57:20;;;;;;;18.23;12.30;;;;;;;-143.21;80.41;72183.22;5133537;27;20183;-79
2023/06/29 06:59:47;;;;;;;18.67;11.37;;;;;;;-143.21;80.25;72167.38;5133626;27;20195;-79
2023/06/29 07:02:14;;;;;;;18.23;11.00;;;;;;;-143.21;80.60;72169.34;5132866;27;20680;-80
2023/06/29 07:04:40;;;;;;;12.13;10.40;;;;;;;-143.21;80.03;72173.31;5132887;27;20188;-80
2023/06/29 07:07:08;;;;;;;13.30;10.63;;;;;;;-143.21;78.47;72175.31;5133358;27;20195;-80
2023/06/29 07:09:36;;;;;;;12.47;9.90;;;;;;;-143.21;78.61;72179.25;5133150;27;20198;-79
2023/06/29 07:12:03;;;;;;;12.50;10.13;;;;;;;-143.21;79.14;72169.34;5133218;27;20195;-80
2023/06/29 07:14:31;;;;;;;14.93;9.80;;;;;;;-143.21;78.85;72163.41;5133312;27;20248;-79
2023/06/29 07:16:58;;;;;;;12.80;9.17;;;;;;;-143.21;77.50;72151.50;5132996;27;20199;-79
2023/06/29 07:19:25;;;;;;;12.60;9.60;;;;;;;-143.21;77.11;72143.56;5132852;27;20188;-79
2023/06/29 07:21:52;;;;;;;12.60;9.17;;;;;;;-143.21;77.25;72135.63;5131786;27;20318;-79
2023/06/29 07:24:21;;;;;;;11.40;8.83;;;;;;;-143.21;76.68;72125.72;5132553;27;20701;-78
2023/06/29 07:26:49;;;;;;;11.10;8.80;;;;;;;-143.21;75.42;72117.78;5132510;27;20196;-78
2023/06/29 07:29:16;;;;;;;11.40;8.60;;;;;;;-143.21;76.41;72113.81;5132530;27;20627;-78
2023/06/29 07:31:43;;;;;;;10.73;8.20;;;;;;;-143.21;76.05;72147.53;5132094;27;20211;-79
2023/06/29 07:34:10;;;;;;;13.40;8.43;;;;;;;-143.21;76.51;72151.50;5132189;27;20195;-78
2023/06/29 07:36:38;;;;;;;10.43;8.57;;;;;;;-143.21;77.13;72131.69;5132450;27;20211;-78
2023/06/29 07:39:04;;;;;;;11.27;8.37;;;;;;;-143.21;76.66;72109.84;5132243;27;20658;-79
2023/06/29 07:41:32;;;;;;;9.10;7.47;;;;;;;-143.21;74.17;72103.91;5132196;27;20192;-79
2023/06/29 07:44:01;;;;;;;11.33;7.70;;;;;;;-143.21;74.10;72105.91;5132116;27;20195;-79
2023/06/29 07:46:28;;;;;;;8.40;7.07;;;;;;;-143.21;74.64;72105.91;5132474;27;20278;-78
2023/06/29 07:48:55;;;;;;;9.50;6.33;;;;;;;-143.21;74.54;72103.91;5132065;27;20609;-79
2023/06/29 07:51:22;;;;;;;9.20;6.70;;;;;;;-143.21;73.92;72094.00;5131846;27;20769;-79
2023/06/29 07:53:50;;;;;;;8.30;6.43;;;;;;;-143.21;74.84;72090.03;5132193;27;20319;-79
2023/06/29 07:56:17;;;;;;;10.70;6.20;;;;;;;-143.21;74.06;72066.22;5132016;27;20196;-79
2023/06/29 07:58:43;;;;;;;11.40;6.50;;;;;;;-143.21;73.67;72052.34;5132060;27;20278;-79
2023/06/29 08:01:12;;;;;;;9.33;6.00;;;;;;;-143.21;72.12;72054.34;5132014;27;20192;-79
2023/06/29 08:03:38;;;;;;;11.20;6.37;;;;;;;-143.21;72.02;72030.53;5131878;27;20199;-79
2023/06/29 08:06:05;;;;;;;9.13;6.40;;;;;;;-143.21;72.11;72012.69;5131921;27;20214;-79
2023/06/29 08:08:32;;;;;;;8.63;5.83;;;;;;;-143.21;70.97;72000.78;5132104;27;20309;-79
2023/06/29 08:10:59;;;;;;;8.47;6.30;;;;;;;-143.21;71.36;71978.97;5132102;27;20223;-79
2023/06/29 08:13:26;;;;;;;9.50;6.90;;;;;;;-143.21;70.08;71959.16;5131774;27;20202;-79
2023/06/29 08:15:53;;;;;;;8.43;6.97;;;;;;;-143.21;70.95;71975.00;5132343;27;20559;-79
2023/06/29 08:18:21;;;;;;;13.53;6.77;;;;;;;-143.21;71.40;71977.00;5131457;27;20191;-79
2023/06/29 08:20:48;;;;;;;8.13;6.67;;;;;;;-143.21;72.30;72000.78;5131569;27;20227;-78
2023/06/29 08:23:15;;;;;;;9.70;7.63;;;;;;;-143.21;72.57;72000.78;5131764;27;20195;-79
2023/06/29 08:25:42;;;;;;;10.10;6.73;;;;;;;-143.21;72.28;71984.94;5132289;27;20202;-78
2023/06/29 08:28:09;;;;;;;12.00;8.60;;;;;;;-143.21;72.60;71977.00;5131598;27;20252;-78
2023/06/29 08:30:36;;;;;;;13.60;6.63;;;;;;;-143.21;72.04;71986.91;5132163;28;20211;-78
2023/06/29 08:33:03;;;;;;;14.80;6.50;;;;;;;-143.21;71.86;71994.84;5131256;27;20240;-82
2023/06/29 08:35:31;;;;;;;7.80;6.40;;;;;;;-143.21;71.36;71992.88;5131890;28;20231;-79
2023/06/29 08:37:58;;;;;;;7.80;5.93;;;;;;;-143.21;71.39;71980.97;5132132;28;20195;-79
2023/06/29 08:40:27;;;;;;;8.43;5.83;;;;;;;-143.21;69.78;71959.16;5131678;28;20188;-79
2023/06/29 08:42:53;;;;;;;10.73;6.63;;;;;;;-143.21;68.85;71951.22;5131625;28;20206;-79
2023/06/29 08:45:20;;;;;;;10.70;6.90;;;;;;;-143.21;68.29;71951.22;5131349;28;20187;-79
2023/06/29 08:47:51;;;;;;;8.32;6.30;;;;;;;-143.21;68.30;71951.22;5131358;28;20190;-78
2023/06/29 08:50:20;;;;;;;6.97;5.50;;;;;;;-143.21;68.32;71955.19;5131238;28;20183;-78
2023/06/29 08:52:49;;;;;;;6.27;4.63;;;;;;;-143.21;69.24;71961.13;5131678;28;20214;-78
2023/06/29 08:55:16;;;;;;;9.27;4.73;;;;;;;-143.21;68.82;71943.28;5131584;28;20244;-78
2023/06/29 08:57:43;;;;;;;6.57;4.63;;;;;;;-143.21;67.90;71937.34;5131509;28;20195;-78
2023/06/29 09:00:12;;;;;;;5.47;4.80;;;;;;;-143.21;68.55;71943.28;5131561;28;20195;-78
2023/06/29 09:02:39;;;;;;;9.00;5.25;;;;;;;-143.21;68.52;71913.53;5131601;28;20206;-79
2023/06/29 09:05:06;;;;;;;5.57;4.57;;;;;;;-143.21;66.82;71901.66;5131256;28;20526;-79
2023/06/29 09:07:33;;;;;;;4.68;4.05;;;;;;;-143.21;66.15;71885.78;5131324;28;20291;-78
2023/06/29 09:10:04;;;;;;;4.80;4.27;;;;;;;-143.21;66.48;71867.94;5131547;28;20222;-78
2023/06/29 09:12:32;;;;;;;7.00;4.57;;;;;;;-143.21;66.64;71863.97;5131500;28;20399;-79
2023/06/29 09:14:59;;;;;;;7.30;4.88;;;;;;;-143.21;67.29;71856.03;5131666;28;20256;-78
2023/06/29 09:17:28;;;;;;;7.30;4.50;;;;;;;-143.21;66.85;71848.09;5131579;28;20195;-78
2023/06/29 09:19:56;;;;;;;8.52;4.57;;;;;;;-143.21;67.24;71834.22;5131899;28;20187;-78
2023/06/29 09:22:27;;;;;;;5.07;4.43;;;;;;;-143.21;65.85;71814.41;5131159;28;20187;-78
2023/06/29 09:24:56;;;;;;;7.90;4.38;;;;;;;-143.21;65.81;71800.53;5131455;28;20519;-79
2023/06/29 09:27:26;;;;;;;8.05;4.25;;;;;;;-143.21;64.80;71782.69;5131687;28;20219;-79
2023/06/29 09:29:56;;;;;;;7.30;4.20;;;;;;;-143.21;65.22;71782.69;5131599;28;20252;-78
2023/06/29 09:32:23;;;;;;;4.82;4.20;;;;;;;-143.21;64.04;71762.84;5131331;28;20380;-78
2023/06/29 09:34:50;;;;;;;6.25;4.25;;;;;;;-143.21;62.37;71748.97;5131431;28;20198;-78
2023/06/29 09:37:17;;;;;;;6.65;3.80;;;;;;;-143.21;63.09;71737.06;5131197;28;20238;-78
2023/06/29 09:39:58;;;;;;;4.85;3.30;;;;;;;-143.21;62.60;71727.16;5130987;28;20184;-79
2023/06/29 09:42:29;;;;;;;6.65;3.88;;;;;;;-143.21;61.53;71715.25;5131187;28;20175;-79
2023/06/29 09:44:56;;;;;;;8.95;3.88;;;;;;;-143.21;62.17;71701.38;5131437;27;20643;-79
2023/06/29 09:47:24;;;;;;;5.82;4.25;;;;;;;-143.21;61.91;71683.53;5134485;27;20550;-79
2023/06/29 09:49:50;;;;;;;6.97;5.38;;;;;;;-143.21;60.41;71671.63;5134654;27;20253;-78
2023/06/29 09:52:19;;;;;;;4.90;3.80;;;;;;;-143.21;60.17;71673.63;5134452;27;20637;-78
2023/06/29 09:54:46;;;;;;;4.40;3.78;;;;;;;-143.21;59.22;71661.72;5134630;27;20241;-78
2023/06/29 09:57:12;;;;;;;6.22;3.80;;;;;;;-143.21;59.79;71659.75;5134673;27;20203;-79
2023/06/29 09:59:44;;;;;;;7.50;4.00;;;;;;;-143.21;61.33;71673.63;5134382;27;20248;-78
2023/06/29 10:02:11;;;;;;;4.40;3.65;;;;;;;-143.21;59.09;71667.66;5134364;27;20199;-78
2023/06/29 10:04:38;;;;;;;4.15;3.53;;;;;;;-143.21;57.93;71667.66;5134149;27;20187;-78
2023/06/29 10:07:09;;;;;;;6.55;3.78;;;;;;;-143.21;59.57;71667.66;5134310;27;20207;-78
2023/06/29 10:09:38;;;;;;;5.20;3.72;;;;;;;-143.21;59.24;71665.69;5134625;27;20195;-79
2023/06/29 10:12:08;;;;;;;5.55;3.58;;;;;;;-143.21;57.79;71645.88;5134159;27;20309;-78
2023/06/29 10:14:36;;;;;;;4.47;3.45;;;;;;;-143.21;57.55;71655.78;5134281;27;20255;-79
2023/06/29 10:17:10;;;;;;;4.72;3.05;;;;;;;-143.21;56.66;71631.97;5134209;27;20184;-79
2023/06/29 10:19:41;;;;;;;4.15;3.10;;;;;;;-143.21;55.40;71610.16;5134339;27;20191;-79
2023/06/29 10:22:11;;;;;;;5.25;3.40;;;;;;;-143.21;56.19;71580.44;5133911;27;20706;-79
2023/06/29 10:24:40;;;;;;;6.30;2.67;;;;;;;-143.21;54.96;71582.41;5134041;27;20642;-79
2023/06/29 10:27:09;;;;;;;3.42;3.05;;;;;;;-143.21;54.93;71582.41;5134139;27;20195;-79
2023/06/29 10:29:43;;;;;;;4.38;3.10;;;;;;;-143.21;55.38;71552.69;5133937;27;20210;-79
2023/06/29 10:32:29;;;;;;;4.53;3.25;;;;;;;-143.21;55.71;71522.94;5133879;27;20230;-79
2023/06/29 10:35:05;;;;;;;4.45;3.33;;;;;;;-143.21;55.02;71491.22;5133965;27;20198;-78
2023/06/29 10:37:33;;;;;;;4.78;3.40;;;;;;;-143.21;53.92;71471.38;5123040;27;20258;-79
2023/06/29 10:39:59;;;;;;;3.42;3.13;;;;;;;-143.21;52.39;71455.53;5133497;27;20214;-79
2023/06/29 10:42:48;;;;;;;6.07;3.25;;;;;;;-143.21;53.28;71433.72;5133709;27;20236;-78
2023/06/29 10:45:32;;;;;;;8.60;3.08;;;;;;;-143.21;52.02;71437.69;5134034;27;20191;-78
2023/06/29 10:48:18;;;;;;;4.50;3.42;;;;;;;-143.21;52.53;71423.78;5133861;27;20187;-78
2023/06/29 10:50:46;;;;;;;4.50;3.00;;;;;;;-143.21;53.33;71402.00;5133701;27;20241;-79
2023/06/29 10:53:15;;;;;;;8.02;2.97;;;;;;;-143.21;51.31;71368.28;5133582;27;20634;-79
2023/06/29 10:55:47;;;;;;;3.75;3.20;;;;;;;-143.21;51.21;71348.47;5133400;27;20240;-79
2023/06/29 10:58:20;;;;;;;6.20;3.10;;;;;;;-143.21;51.83;71334.59;5133547;27;20646;-79
2023/06/29 11:00:48;;;;;;;4.93;3.65;;;;;;;-143.21;51.84;71354.41;5133729;27;20301;-79
2023/06/29 11:03:15;;;;;;;7.70;3.70;;;;;;;-143.21;50.59;71411.91;5133336;27;20560;-79
2023/06/29 11:05:43;;;;;;;7.47;3.28;;;;;;;-143.21;50.04;71423.78;5133168;27;20273;-79
2023/06/29 11:08:10;;;;;;;4.00;3.50;;;;;;;-143.21;51.07;71407.94;5133220;27;20250;-79
2023/06/29 11:10:37;;;;;;;5.03;3.67;;;;;;;-143.21;51.46;71394.06;5133125;27;20195;-78
2023/06/29 11:13:13;;;;;;;6.43;3.63;;;;;;;-143.21;52.41;71392.06;5133004;27;20240;-79